• Join FlightAware (Why Join?)
  • Login
  • US Flag 
Rudolph Flight #1: Scheduled 
11:11PM EST


 

Airport Tracker/Info


-or-


 

Live Flight TrackerFlight Track Log ✈ CNS33 ✈ 04-May-2013 ✈ KBID - KMMU

Flight Track Log - Related Links

Times and Time Zones

All times are in EDT time to prevent confusion due to time zone crossing. See the CNS33 flight status page for this flight to view local times or setup timezone preferences in your user account.

Time Position Orientation Groundspeed Altitude Reporting Facility
EDT Latitude Longitude Course Direction KTS MPH feet Rate Location/Type
10:41AM 41.1747 -71.7286 267° West 199 229 6,100  Level Boston Center
10:41AM 41.1708 -71.7481 255° West 201 231 6,500 1,380 Climbing Boston Center
10:42AM 41.1647 -71.7950 260° West 230 265 7,500 1,500 Climbing Boston Center
10:43AM 41.1569 -71.8722 262° West 214 246 9,100 1,380 Climbing Boston Center
10:44AM 41.1447 -71.9411 257° West 208 239 10,300 660 Climbing Boston Center
10:45AM 41.1347 -72.0267 261° West 213 245 10,500 60 Climbing Boston Center
10:46AM 41.1225 -72.1178 260° West 239 275 10,500  Level Boston Center
10:47AM 41.1103 -72.2142 260° West 262 302 10,500  Level Boston Center
10:48AM 41.0978 -72.3078 260° West 262 302 10,500  Level Boston Center
10:49AM 41.0853 -72.4042 260° West 262 302 10,500  Level Boston Center
10:51AM 41.0500 -72.6167 258° West 262 302 10,500  Level New York TRACON
10:52AM 41.0500 -72.7167 270° West 261 300 10,600  Climbing New York TRACON
10:53AM 41.0333 -72.8000 255° West 262 302 10,500 -60 Descending New York TRACON
10:54AM 41.0167 -72.9000 258° West 265 305 10,500  Level New York TRACON
10:55AM 41.0000 -73.0000 258° West 267 307 10,500  Level New York TRACON
10:56AM 41.0000 -73.0833 270° West 267 307 10,500  Level New York TRACON
10:57AM 40.9833 -73.1833 258° West 262 302 10,500  Level New York TRACON
10:58AM 40.9667 -73.2833 258° West 257 296 10,500 -420 Level New York TRACON
10:59AM 40.9500 -73.3667 255° West 273 314 9,700 -900 Descending New York TRACON
11:00AM 40.9333 -73.4833 259° West 286 329 8,800 -960 Descending New York TRACON
11:01AM 40.9167 -73.5833 258° West 281 323 7,800 -960 Descending New York TRACON
11:02AM 40.9167 -73.6833 270° West 273 314 6,900 -960 Descending New York TRACON
11:03AM 40.9000 -73.7667 255° West 269 310 5,900 -660 Descending New York TRACON
11:04AM 40.8833 -73.8667 258° West 256 295 5,600 -240 Descending New York TRACON
11:05AM 40.8667 -73.9500 255° West 240 276 5,500 -420 Descending New York TRACON
11:06AM 40.8500 -74.0500 258° West 253 291 4,800 -600 Descending New York TRACON
11:07AM 40.8500 -74.1333 270° West 245 282 4,300 -660 Descending New York TRACON
11:08AM 40.8333 -74.2167 255° West 225 259 3,500 -900 Descending New York TRACON
11:09AM 40.8167 -74.3000 255° West 198 228 2,500 -720 Descending New York TRACON
11:10AM 40.8000 -74.3500 246° West 171 197 2,100 -420 Descending New York TRACON
11:11AM 40.7667 -74.3833 217° Southwest 141 162 1,700 -420 Descending New York TRACON